Time;durP1;ratioP1;P1;durP2;ratioP2;P2;SDS_P1;SDS_P2;PMS_P1;PMS_P2;Temp;Humidity;BMP_temperature;BMP_pressure;BME280_temperature;BME280_humidity;BME280_pressure;Samples;Min_cycle;Max_cycle;Signal;HPM_P1;HPM_P2
2021/06/08 00:02:24;;;;;;;;;;;;;;;13.17;100.00;93271.59;4990029;28;20046;-83
2021/06/08 00:04:50;;;;;;;5.50;3.42;;;;;;;13.18;100.00;93267.19;4989819;28;19968;-83
2021/06/08 00:07:16;;;;;;;5.18;3.17;;;;;;;13.18;100.00;93251.72;4989925;28;20073;-83
2021/06/08 00:09:44;;;;;;;5.93;3.90;;;;;;;13.36;100.00;93254.22;4989586;28;20039;-83
2021/06/08 00:12:11;;;;;;;7.93;4.50;;;;;;;13.51;100.00;93263.28;4989727;28;20057;-83
2021/06/08 00:14:37;;;;;;;9.10;4.32;;;;;;;13.51;100.00;93247.81;4989800;28;20074;-83
2021/06/08 00:17:03;;;;;;;;;;;;;;;13.59;100.00;93252.63;4989739;28;20053;-83
2021/06/08 00:19:30;;;;;;;12.00;5.57;;;;;;;13.54;100.00;93241.41;4989653;28;19917;-83
2021/06/08 00:21:56;;;;;;;13.02;5.28;;;;;;;13.63;100.00;93247.81;4989749;28;20058;-83
2021/06/08 00:24:22;;;;;;;;;;;;;;;13.69;100.00;93248.69;4989944;28;20046;-83
2021/06/08 00:26:49;;;;;;;14.30;6.40;;;;;;;13.54;100.00;93225.94;4988793;28;19917;-83
2021/06/08 00:29:16;;;;;;;11.90;5.68;;;;;;;13.67;100.00;93242.97;4989535;28;20042;-83
2021/06/08 00:31:42;;;;;;;;;;;;;;;13.66;100.00;93237.00;4989650;28;20066;-84
2021/06/08 00:34:08;;;;;;;11.80;5.78;;;;;;;13.66;100.00;93237.00;4989610;28;19917;-84
2021/06/08 00:36:34;;;;;;;;;;;;;;;13.69;100.00;93228.81;4989955;28;20093;-83
2021/06/08 00:39:00;;;;;;;11.38;5.15;;;;;;;13.72;100.00;93225.00;4989148;28;19928;-83
2021/06/08 00:41:34;;;;;;;;;;;;;;;13.70;100.00;93225.22;4990035;28;20422;-83
2021/06/08 00:44:05;;;;;;;11.15;5.75;;;;;;;13.73;100.00;93229.94;4990209;28;19921;-84
2021/06/08 00:46:31;;;;;;;18.80;6.60;;;;;;;13.74;100.00;93231.50;4992854;28;20061;-83
2021/06/08 00:48:57;;;;;;;;;;;;;;;13.76;100.00;93226.88;4993375;28;20050;-83
2021/06/08 00:51:23;;;;;;;12.63;5.88;;;;;;;13.76;100.00;93223.53;4992426;28;20285;-83
2021/06/08 00:53:50;;;;;;;13.20;6.25;;;;;;;13.63;100.00;93194.41;4992825;28;20046;-83
2021/06/08 00:56:16;;;;;;;19.20;7.00;;;;;;;13.63;100.00;93196.19;4992566;28;20050;-83
2021/06/08 00:58:44;;;;;;;;;;;;;;;13.72;100.00;93212.09;4993056;28;20132;-83
2021/06/08 01:01:13;;;;;;;13.13;5.18;;;;;;;13.23;100.00;93149.47;4992722;28;19977;-83
2021/06/08 01:03:39;;;;;;;12.60;5.60;;;;;;;13.68;100.00;93211.78;4992496;28;20051;-84
2021/06/08 01:06:06;;;;;;;15.48;6.05;;;;;;;13.69;100.00;93210.75;4992198;28;20053;-84
2021/06/08 01:08:32;;;;;;;15.32;6.22;;;;;;;13.70;100.00;93212.31;4992306;28;20053;-84
2021/06/08 01:10:59;;;;;;;10.70;5.60;;;;;;;13.69;100.00;93207.38;4992640;28;20050;-84
2021/06/08 01:13:27;;;;;;;11.80;6.88;;;;;;;13.62;100.00;93202.38;4992046;28;20046;-84
2021/06/08 01:15:53;;;;;;;14.40;6.97;;;;;;;13.67;100.00;93209.41;4992199;28;20398;-84
2021/06/08 01:18:22;;;;;;;13.63;5.20;;;;;;;13.19;100.00;93137.25;4992342;28;20046;-84
2021/06/08 01:20:50;;;;;;;14.23;6.47;;;;;;;13.66;100.00;93193.13;4992363;28;20043;-84
2021/06/08 01:23:18;;;;;;;15.00;6.03;;;;;;;13.62;100.00;93192.03;4991962;28;20046;-84
2021/06/08 01:25:44;;;;;;;20.00;6.15;;;;;;;13.51;100.00;93178.13;4948733;28;20056;-84
2021/06/08 01:28:10;;;;;;;;;;;;;;;13.48;100.00;93191.50;5002795;28;20038;-85
2021/06/08 01:30:37;;;;;;;16.75;5.25;;;;;;;13.35;100.00;93184.78;4991874;28;20388;-84
2021/06/08 01:33:04;;;;;;;17.75;5.90;;;;;;;13.33;100.00;93184.22;4992013;28;20046;-84
2021/06/08 01:35:32;;;;;;;15.05;5.88;;;;;;;13.10;100.00;93160.00;4992138;28;20053;-84
2021/06/08 01:37:58;;;;;;;10.52;5.85;;;;;;;13.35;100.00;93187.34;4991988;28;20046;-84
2021/06/08 01:40:27;;;;;;;14.93;5.22;;;;;;;13.38;100.00;93183.53;4992157;28;20042;-83
2021/06/08 01:42:53;;;;;;;13.00;6.00;;;;;;;13.42;100.00;93184.66;4991201;28;20050;-83
2021/06/08 01:45:19;;;;;;;;;;;;;;;13.42;100.00;93192.41;4992195;28;20050;-83
2021/06/08 01:47:45;;;;;;;13.15;4.95;;;;;;;13.36;100.00;93184.53;4991838;28;19917;-83
2021/06/08 01:50:12;;;;;;;;;;;;;;;13.43;100.00;93186.22;4992000;28;20046;-83
2021/06/08 01:52:42;;;;;;;12.10;5.47;;;;;;;13.22;100.00;93157.41;4991396;28;20012;-83
2021/06/08 01:55:15;;;;;;;14.65;5.30;;;;;;;13.43;100.00;93191.38;4991425;28;20062;-83
2021/06/08 01:57:47;;;;;;;13.00;6.35;;;;;;;13.43;100.00;93197.31;4991234;28;20521;-83
2021/06/08 02:00:17;;;;;;;14.38;5.95;;;;;;;13.19;100.00;93197.34;4991384;28;20047;-83
2021/06/08 02:02:53;;;;;;;11.98;4.88;;;;;;;13.10;100.00;93170.31;4991292;28;20476;-82
2021/06/08 02:05:28;;;;;;;12.65;5.93;;;;;;;13.20;100.00;93192.97;4991070;28;20043;-83
2021/06/08 02:08:03;;;;;;;9.95;4.43;;;;;;;13.14;100.00;93188.72;4991413;28;20090;-83
2021/06/08 02:10:39;;;;;;;12.25;4.25;;;;;;;12.87;100.00;93195.09;4991155;28;20053;-83
2021/06/08 02:13:13;;;;;;;12.63;4.60;;;;;;;12.82;100.00;93197.56;4991413;28;20169;-83
2021/06/08 02:15:48;;;;;;;11.18;5.78;;;;;;;12.77;100.00;93195.66;4991004;28;20376;-83
2021/06/08 02:18:17;;;;;;;6.70;2.83;;;;;;;12.55;100.00;93201.34;4991231;28;20050;-83
2021/06/08 02:20:47;;;;;;;8.52;3.85;;;;;;;12.50;100.00;93203.03;4991061;28;20156;-84
2021/06/08 02:23:18;;;;;;;9.57;4.45;;;;;;;12.41;100.00;93180.16;4991080;28;20050;-84
2021/06/08 02:25:45;;;;;;;11.50;4.78;;;;;;;12.59;100.00;93196.53;4990808;28;20053;-83
2021/06/08 02:28:15;;;;;;;13.32;5.70;;;;;;;12.65;100.00;93182.00;4989726;28;20478;-83
2021/06/08 02:30:44;;;;;;;10.95;5.57;;;;;;;12.70;100.00;93190.63;4990836;28;20050;-84
2021/06/08 02:33:11;;;;;;;17.20;5.47;;;;;;;12.83;100.00;93202.50;4990638;28;20125;-84
2021/06/08 02:35:39;;;;;;;12.98;5.85;;;;;;;12.90;100.00;93199.81;4990908;28;20500;-84
2021/06/08 02:38:06;;;;;;;15.65;5.30;;;;;;;12.98;100.00;93205.66;4990728;28;20039;-84
2021/06/08 02:40:32;;;;;;;13.85;5.90;;;;;;;13.06;100.00;93202.75;4990564;28;20042;-83
2021/06/08 02:43:00;;;;;;;9.73;4.57;;;;;;;13.13;100.00;93205.19;4990735;28;20042;-84
2021/06/08 02:45:29;;;;;;;10.93;5.25;;;;;;;13.16;100.00;93202.19;4990850;28;20042;-83
2021/06/08 02:47:56;;;;;;;10.32;5.05;;;;;;;13.20;100.00;93211.03;4991191;28;20050;-84
2021/06/08 02:50:24;;;;;;;12.65;4.85;;;;;;;13.18;100.00;93202.72;4990139;28;20045;-83
2021/06/08 02:52:54;;;;;;;10.30;5.63;;;;;;;13.04;100.00;93195.22;4990474;28;20109;-84
2021/06/08 02:55:22;;;;;;;7.55;4.57;;;;;;;13.20;100.00;93216.97;4990386;28;20046;-85
2021/06/08 02:57:51;;;;;;;11.50;5.35;;;;;;;13.09;100.00;93199.69;4990621;28;20442;-84
2021/06/08 03:00:19;;;;;;;9.75;4.90;;;;;;;13.21;100.00;93215.19;4990234;28;20081;-81
2021/06/08 03:02:51;;;;;;;9.35;4.35;;;;;;;13.17;100.00;93207.13;4990603;28;20042;-81
2021/06/08 03:05:28;;;;;;;13.40;5.32;;;;;;;13.16;100.00;93212.50;4985814;28;20415;-81
2021/06/08 03:07:59;;;;;;;12.35;5.82;;;;;;;13.17;100.00;93207.13;4990129;28;20042;-82
2021/06/08 03:10:30;;;;;;;13.50;4.60;;;;;;;13.16;100.00;93208.13;4990364;28;20046;-82
2021/06/08 03:12:57;;;;;;;10.30;5.72;;;;;;;13.20;100.00;93214.38;4990363;28;20062;-81
2021/06/08 03:15:28;;;;;;;14.80;4.40;;;;;;;13.18;100.00;93207.88;4990059;28;20057;-81
2021/06/08 03:17:56;;;;;;;13.02;6.05;;;;;;;13.23;100.00;93205.41;4990202;28;20555;-83
2021/06/08 03:20:29;;;;;;;13.38;6.35;;;;;;;13.26;100.00;93217.06;4989739;28;20479;-81
2021/06/08 03:23:00;;;;;;;10.80;5.28;;;;;;;13.27;100.00;93208.31;4990172;28;20506;-81
2021/06/08 03:25:29;;;;;;;12.80;6.32;;;;;;;13.29;100.00;93219.97;4985806;28;20069;-81
2021/06/08 03:27:56;;;;;;;8.93;5.75;;;;;;;13.28;100.00;93220.22;4990123;28;20043;-80
2021/06/08 03:30:23;;;;;;;11.27;5.53;;;;;;;13.27;100.00;93218.63;4989926;28;20042;-80
2021/06/08 03:32:52;;;;;;;9.88;4.85;;;;;;;13.21;100.00;93207.44;4989068;28;20050;-80
2021/06/08 03:35:21;;;;;;;9.45;4.38;;;;;;;13.30;100.00;93220.78;4989907;28;20122;-80
2021/06/08 03:37:48;;;;;;;10.13;4.65;;;;;;;13.29;100.00;93216.63;4989750;28;20442;-80
2021/06/08 03:40:16;;;;;;;11.45;4.78;;;;;;;13.30;100.00;93218.19;4989929;28;20066;-81
2021/06/08 03:42:44;;;;;;;12.48;5.45;;;;;;;13.23;100.00;93213.16;4989590;28;20074;-81
2021/06/08 03:45:12;;;;;;;7.57;3.80;;;;;;;13.19;100.00;93215.41;4989795;28;20042;-81
2021/06/08 03:47:39;;;;;;;8.60;4.93;;;;;;;13.15;100.00;93206.53;4989704;28;20498;-80
2021/06/08 03:50:07;;;;;;;7.70;5.35;;;;;;;13.28;100.00;93223.56;4989796;28;20482;-80
2021/06/08 03:52:35;;;;;;;8.50;5.25;;;;;;;13.19;100.00;93215.41;4989696;28;20039;-81
2021/06/08 03:55:03;;;;;;;9.45;4.18;;;;;;;13.23;100.00;93229.41;4989443;28;20042;-81
2021/06/08 03:57:32;;;;;;;9.95;4.18;;;;;;;13.23;100.00;93238.94;4988884;28;20589;-80
2021/06/08 03:59:59;;;;;;;8.68;4.97;;;;;;;13.23;100.00;93234.59;4989076;28;20088;-79
2021/06/08 04:02:26;;;;;;;10.68;4.93;;;;;;;13.31;100.00;93245.56;4986515;28;20057;-79
2021/06/08 04:04:53;;;;;;;16.10;5.05;;;;;;;13.35;100.00;93246.69;4989647;28;20077;-80
2021/06/08 04:07:19;;;;;;;;;;;;;;;13.35;100.00;93250.06;4989548;28;20105;-79
2021/06/08 04:09:49;;;;;;;10.35;4.43;;;;;;;13.33;100.00;93248.72;4989531;28;19917;-79
2021/06/08 04:12:15;;;;;;;9.85;5.13;;;;;;;13.34;100.00;93248.47;4989499;28;20057;-82
2021/06/08 04:14:43;;;;;;;10.82;4.80;;;;;;;13.35;100.00;93247.47;4989180;28;20042;-83
2021/06/08 04:17:10;;;;;;;9.88;4.57;;;;;;;13.30;100.00;93241.41;4989893;28;20042;-83
2021/06/08 04:19:37;;;;;;;12.13;6.25;;;;;;;13.28;100.00;93233.91;4993129;28;20046;-82
2021/06/08 04:22:04;;;;;;;11.63;5.07;;;;;;;13.44;100.00;93253.09;4993570;28;20049;-82
2021/06/08 04:24:31;;;;;;;13.90;5.28;;;;;;;13.50;100.00;93243.66;4993239;28;20121;-83
2021/06/08 04:27:00;;;;;;;15.50;5.07;;;;;;;13.49;100.00;93234.34;4993307;28;20042;-84
2021/06/08 04:29:27;;;;;;;12.18;6.20;;;;;;;13.61;100.00;93245.44;4993077;28;20038;-84
2021/06/08 04:31:55;;;;;;;14.70;5.75;;;;;;;13.70;100.00;93243.28;4992902;28;20042;-83
2021/06/08 04:34:22;;;;;;;19.73;7.88;;;;;;;13.79;100.00;93242.94;4992841;28;20042;-84
2021/06/08 04:36:49;;;;;;;11.35;5.72;;;;;;;13.84;100.00;93243.81;4993140;28;20486;-84
2021/06/08 04:39:15;;;;;;;12.30;6.15;;;;;;;13.84;100.00;93248.22;4992740;28;20481;-82
2021/06/08 04:41:42;;;;;;;10.75;6.25;;;;;;;13.95;100.00;93249.19;4992737;28;20482;-81
2021/06/08 04:44:16;;;;;;;11.77;6.28;;;;;;;14.03;100.00;93251.41;4992967;28;20046;-81
2021/06/08 04:46:42;;;;;;;15.30;6.78;;;;;;;14.11;100.00;93248.47;4985878;28;20050;-80
2021/06/08 04:49:08;;;;;;;18.35;7.95;;;;;;;14.17;100.00;93244.19;4992719;28;20486;-81
2021/06/08 04:51:35;;;;;;;15.27;7.07;;;;;;;14.27;100.00;93261.66;4992632;28;20046;-80
2021/06/08 04:54:02;;;;;;;14.65;7.95;;;;;;;14.27;100.00;93254.69;4992357;28;20046;-80
2021/06/08 04:56:28;;;;;;;11.48;6.75;;;;;;;14.19;100.00;93242.16;4992929;28;20427;-80
2021/06/08 04:58:55;;;;;;;15.65;7.18;;;;;;;14.27;100.00;93259.06;4992490;28;20500;-80
2021/06/08 05:01:27;;;;;;;13.60;6.88;;;;;;;14.09;100.00;93224.66;4992512;28;20109;-85
2021/06/08 05:04:07;;;;;;;13.20;6.35;;;;;;;14.29;100.00;93252.66;4992281;28;20478;-82
2021/06/08 05:06:37;;;;;;;13.50;6.80;;;;;;;14.25;100.00;93248.16;4992403;28;20043;-81
2021/06/08 05:09:10;;;;;;;13.30;6.45;;;;;;;14.30;100.00;93256.81;4992384;28;20050;-81
2021/06/08 05:11:40;;;;;;;10.43;4.55;;;;;;;14.34;100.00;93258.94;4992112;28;20394;-81
2021/06/08 05:14:08;;;;;;;11.93;5.43;;;;;;;14.33;100.00;93257.34;4992385;28;20046;-81
2021/06/08 05:16:39;;;;;;;11.88;5.40;;;;;;;14.28;100.00;93256.28;4992396;28;20042;-81
2021/06/08 05:19:09;;;;;;;14.05;6.10;;;;;;;14.29;100.00;93263.00;4992392;28;20050;-81
2021/06/08 05:21:36;;;;;;;13.43;6.40;;;;;;;14.22;100.00;93244.28;4992231;28;20042;-81
2021/06/08 05:24:05;;;;;;;17.48;6.75;;;;;;;14.43;100.00;93265.28;4992049;28;20402;-81
2021/06/08 05:26:31;;;;;;;14.75;8.38;;;;;;;14.38;100.00;93253.06;4992391;28;20046;-82
2021/06/08 05:28:58;;;;;;;14.93;6.15;;;;;;;14.43;100.00;93265.28;4991792;28;20393;-82
2021/06/08 05:31:25;;;;;;;14.65;6.68;;;;;;;14.43;100.00;93270.47;4991659;28;20046;-82
2021/06/08 05:33:57;;;;;;;11.95;6.75;;;;;;;14.23;100.00;93253.59;4991859;28;20046;-82
2021/06/08 05:36:28;;;;;;;16.52;7.85;;;;;;;14.26;100.00;93260.88;4991974;28;20057;-83
2021/06/08 05:38:54;;;;;;;19.42;8.18;;;;;;;14.18;100.00;93257.88;4992064;28;20050;-86
2021/06/08 05:41:21;;;;;;;14.98;7.75;;;;;;;14.26;100.00;93260.09;4991527;28;20042;-83
2021/06/08 05:43:47;;;;;;;21.52;9.15;;;;;;;14.37;100.00;93261.84;4991569;28;20057;-85
2021/06/08 05:46:14;;;;;;;23.23;9.43;;;;;;;14.42;100.00;93261.94;4991663;28;20043;-84
2021/06/08 05:48:40;;;;;;;;;;;;;;;14.37;100.00;93261.06;4992135;28;20211;-86
2021/06/08 05:51:10;;;;;;;20.42;8.05;;;;;;;14.35;100.00;93260.50;4991780;28;19918;-87
2021/06/08 05:53:38;;;;;;;15.70;8.80;;;;;;;14.15;100.00;93221.16;4991508;28;20039;-85
2021/06/08 05:56:06;;;;;;;20.02;9.75;;;;;;;14.53;100.00;93247.38;4991498;28;20072;-85
2021/06/08 05:58:34;;;;;;;23.67;8.60;;;;;;;14.77;100.00;93252.44;4991306;28;20038;-85
2021/06/08 06:01:02;;;;;;;21.25;11.27;;;;;;;14.96;100.00;93244.47;4991238;28;20050;-86
2021/06/08 06:03:29;;;;;;;23.55;8.73;;;;;;;15.30;100.00;93261.75;4991304;28;20050;-86
2021/06/08 06:05:57;;;;;;;23.33;9.77;;;;;;;15.43;100.00;93265.81;4991280;28;20042;-86
2021/06/08 06:08:26;;;;;;;21.02;10.27;;;;;;;15.28;100.00;93243.88;4991006;28;20053;-85
2021/06/08 06:10:53;;;;;;;23.45;11.35;;;;;;;15.35;100.00;93244.50;4991487;28;20046;-85
2021/06/08 06:13:23;;;;;;;24.13;10.50;;;;;;;15.61;100.00;93265.53;4990859;28;20062;-85
2021/06/08 06:15:50;;;;;;;26.98;11.40;;;;;;;15.54;100.00;93233.06;4991009;28;20053;-86
2021/06/08 06:18:18;;;;;;;28.70;10.80;;;;;;;15.82;100.00;93249.47;4990817;28;20050;-87
2021/06/08 06:20:46;;;;;;;33.40;14.63;;;;;;;15.98;100.00;93268.59;4991039;28;20133;-87
2021/06/08 06:23:15;;;;;;;26.70;13.13;;;;;;;16.10;100.00;93268.50;4990922;28;20057;-87
2021/06/08 06:25:43;;;;;;;36.28;14.63;;;;;;;16.22;100.00;93263.94;4990719;28;20486;-87
2021/06/08 06:28:12;;;;;;;35.58;16.13;;;;;;;16.01;100.00;93226.66;4990757;28;20042;-87
2021/06/08 06:30:39;;;;;;;24.05;12.25;;;;;;;16.19;100.00;93266.25;4990704;28;20481;-86
2021/06/08 06:33:06;;;;;;;26.80;12.85;;;;;;;16.35;100.00;93270.56;4991002;28;20045;-87
2021/06/08 06:35:34;;;;;;;28.88;12.18;;;;;;;16.62;100.00;93269.75;4990685;28;20050;-87
2021/06/08 06:38:02;;;;;;;28.67;12.98;;;;;;;16.31;100.00;93243.56;4990802;28;20056;-87
2021/06/08 06:40:32;;;;;;;22.30;11.38;;;;;;;16.32;100.00;93219.19;4990589;28;20528;-86
2021/06/08 06:43:03;;;;;;;30.38;11.27;;;;;;;16.76;100.00;93244.22;4989834;28;20441;-86
2021/06/08 06:45:31;;;;;;;27.27;14.25;;;;;;;17.15;100.00;93273.59;4990593;28;20073;-86
2021/06/08 06:48:02;;;;;;;25.95;12.63;;;;;;;17.29;100.00;93253.19;4990749;28;20046;-86
2021/06/08 06:50:30;;;;;;;32.45;14.93;;;;;;;17.48;100.00;93249.16;4990625;28;20082;-86
2021/06/08 06:52:57;;;;;;;35.10;14.27;;;;;;;17.86;100.00;93261.25;4990307;28;20047;-86
2021/06/08 06:55:25;;;;;;;31.55;15.32;;;;;;;18.02;100.00;93249.88;4990480;28;20038;-86
2021/06/08 06:57:53;;;;;;;34.78;13.43;;;;;;;17.99;100.00;93223.63;4986091;28;20042;-86
2021/06/08 07:00:21;;;;;;;33.10;14.55;;;;;;;18.42;100.00;93239.09;4988391;28;20545;-86
2021/06/08 07:02:50;;;;;;;28.60;14.25;;;;;;;18.76;100.00;93250.84;4990049;28;20383;-86
2021/06/08 07:05:19;;;;;;;28.90;13.07;;;;;;;19.26;100.00;93240.72;4989964;28;21169;-86
2021/06/08 07:07:47;;;;;;;25.27;11.38;;;;;;;19.69;97.75;93231.75;4990222;28;20038;-86
2021/06/08 07:10:16;;;;;;;22.35;11.73;;;;;;;20.10;96.00;93223.81;4990012;28;20051;-85
2021/06/08 07:12:44;;;;;;;31.50;12.77;;;;;;;20.35;95.94;93223.91;4989938;28;20055;-86
2021/06/08 07:15:12;;;;;;;26.10;11.18;;;;;;;20.72;92.71;93204.34;4990008;28;20062;-87
2021/06/08 07:17:41;;;;;;;24.20;11.23;;;;;;;20.94;91.49;93182.28;4990163;28;20093;-86
2021/06/08 07:20:09;;;;;;;25.60;12.38;;;;;;;21.14;89.73;93183.91;4989924;28;20113;-86
2021/06/08 07:22:38;;;;;;;23.65;10.68;;;;;;;21.71;88.81;93209.47;4989866;28;20053;-86
2021/06/08 07:25:06;;;;;;;17.52;9.20;;;;;;;21.90;85.00;93211.38;4990153;28;20050;-86
2021/06/08 07:27:33;;;;;;;25.63;9.90;;;;;;;21.85;86.18;93209.56;4989889;28;20490;-86
2021/06/08 07:30:00;;;;;;;17.58;9.38;;;;;;;21.44;85.33;93191.72;4989772;28;20494;-86
2021/06/08 07:32:33;;;;;;;17.30;9.90;;;;;;;21.62;88.31;93200.69;4989992;28;20042;-86
2021/06/08 07:35:07;;;;;;;18.10;8.65;;;;;;;21.94;86.00;93214.19;4990133;28;20358;-87
2021/06/08 07:37:36;;;;;;;15.80;7.53;;;;;;;21.74;85.61;93205.53;4989971;28;20050;-85
2021/06/08 07:40:08;;;;;;;14.40;7.40;;;;;;;21.99;84.65;93212.28;4989672;28;20426;-88
2021/06/08 07:42:39;;;;;;;12.45;6.97;;;;;;;22.21;85.14;93187.41;4989599;28;20070;-87
2021/06/08 07:45:08;;;;;;;13.95;7.05;;;;;;;22.47;83.82;93194.91;4989825;28;20093;-86
2021/06/08 07:47:35;;;;;;;10.23;6.20;;;;;;;22.88;79.33;93195.34;4989587;28;20054;-87
2021/06/08 07:50:06;;;;;;;9.43;5.30;;;;;;;22.65;80.54;93206.44;4989346;28;20047;-87
2021/06/08 07:52:34;;;;;;;9.30;4.70;;;;;;;23.22;78.04;93213.38;4990558;28;20044;-87
2021/06/08 07:55:01;;;;;;;10.27;5.00;;;;;;;23.14;78.05;93189.69;4993770;28;20841;-86
2021/06/08 07:57:27;;;;;;;8.18;4.82;;;;;;;23.62;76.77;93212.19;4993801;28;20548;-88
2021/06/08 07:59:54;;;;;;;8.15;5.03;;;;;;;23.87;74.25;93213.53;4993070;28;20478;-87
2021/06/08 08:02:21;;;;;;;5.78;3.92;;;;;;;23.23;70.72;93183.47;4992841;28;20129;-87
2021/06/08 08:04:50;;;;;;;5.43;3.22;;;;;;;23.64;69.81;93201.41;4993692;28;20046;-86
2021/06/08 08:07:20;;;;;;;7.20;3.75;;;;;;;23.38;69.60;93207.13;4993251;28;20482;-86
2021/06/08 08:09:47;;;;;;;4.45;2.97;;;;;;;22.87;72.46;93205.03;4993312;28;20129;-84
2021/06/08 08:12:14;;;;;;;6.10;3.42;;;;;;;23.65;72.72;93203.72;4993298;28;20520;-85
2021/06/08 08:14:42;;;;;;;5.30;3.47;;;;;;;24.10;70.17;93199.72;5012911;28;20481;-85
2021/06/08 08:17:09;;;;;;;7.18;3.35;;;;;;;24.46;70.22;93174.53;5013115;28;20046;-85
2021/06/08 08:19:36;;;;;;;4.43;2.28;;;;;;;24.90;67.67;93203.75;5013151;28;20053;-85
2021/06/08 08:22:05;;;;;;;2.92;1.60;;;;;;;24.07;64.34;93210.78;5012956;28;20046;-89
2021/06/08 08:24:32;;;;;;;4.18;1.40;;;;;;;24.05;66.21;93205.81;5012727;28;20049;-86
2021/06/08 08:27:00;;;;;;;2.17;1.30;;;;;;;24.14;63.72;93192.81;5012708;28;20038;-86
2021/06/08 08:29:27;;;;;;;2.17;1.30;;;;;;;23.81;57.71;93206.84;5012652;28;20517;-87
2021/06/08 08:31:54;;;;;;;2.20;1.20;;;;;;;23.75;61.56;93193.03;5012951;28;20053;-86
2021/06/08 08:34:20;;;;;;;2.38;1.85;;;;;;;23.83;64.53;93183.69;5012762;28;20400;-87
2021/06/08 08:36:46;;;;;;;2.30;1.52;;;;;;;22.97;62.44;93191.03;5012754;28;20046;-86
2021/06/08 08:39:13;;;;;;;2.00;1.33;;;;;;;23.56;61.28;93205.47;5012340;28;20052;-86
2021/06/08 08:41:42;;;;;;;2.30;1.33;;;;;;;23.54;62.81;93205.75;5012363;28;20096;-85
2021/06/08 08:44:09;;;;;;;2.42;1.20;;;;;;;23.26;62.04;93170.84;5012384;28;20050;-87
2021/06/08 08:46:37;;;;;;;2.47;1.40;;;;;;;23.78;63.73;93196.16;5012372;28;20049;-85
2021/06/08 08:49:04;;;;;;;3.55;1.60;;;;;;;23.98;64.40;93185.22;5012004;28;20073;-87
2021/06/08 08:51:33;;;;;;;2.10;1.13;;;;;;;23.76;60.31;93134.25;5012481;28;20405;-87
2021/06/08 08:54:01;;;;;;;2.55;1.35;;;;;;;23.96;58.75;93169.00;5012748;28;20525;-86
2021/06/08 08:56:30;;;;;;;2.25;1.38;;;;;;;24.31;55.94;93183.53;5012694;28;20041;-86
2021/06/08 08:59:02;;;;;;;2.33;1.20;;;;;;;23.96;56.72;93187.38;5012310;28;20049;-85
2021/06/08 09:01:29;;;;;;;2.72;1.77;;;;;;;23.75;59.23;93184.41;5012074;28;20076;-86
2021/06/08 09:03:56;;;;;;;3.55;1.13;;;;;;;23.60;57.66;93174.97;5011207;28;20049;-85
2021/06/08 09:06:22;;;;;;;2.88;1.48;;;;;;;23.92;59.45;93178.53;5011549;28;20056;-86
2021/06/08 09:08:49;;;;;;;3.30;2.03;;;;;;;24.17;57.84;93163.38;5011904;28;20050;-86
2021/06/08 09:11:15;;;;;;;1.88;1.27;;;;;;;24.01;57.75;93176.78;5011486;28;20053;-86
2021/06/08 09:13:42;;;;;;;2.72;1.50;;;;;;;24.24;59.14;93158.47;5011600;28;20052;-86
2021/06/08 09:16:11;;;;;;;2.22;1.33;;;;;;;24.86;55.58;93172.06;5011902;28;20089;-84
2021/06/08 09:18:38;;;;;;;2.25;1.50;;;;;;;24.94;55.54;93133.75;5012384;28;20038;-84
2021/06/08 09:21:12;;;;;;;2.63;1.60;;;;;;;25.27;55.05;93161.59;5011340;28;20046;-86
2021/06/08 09:23:39;;;;;;;2.80;1.50;;;;;;;24.69;54.55;93125.41;5012059;28;20386;-85
2021/06/08 09:26:05;;;;;;;3.25;1.48;;;;;;;25.17;56.16;93134.47;5011964;28;20162;-84
2021/06/08 09:28:32;;;;;;;3.53;1.45;;;;;;;25.30;56.64;93161.75;5012520;28;20045;-85
2021/06/08 09:31:04;;;;;;;3.25;1.67;;;;;;;24.52;52.64;93150.50;5012875;28;20520;-85
2021/06/08 09:33:33;;;;;;;1.98;1.10;;;;;;;25.46;52.41;93154.22;5014341;28;20053;-84
2021/06/08 09:36:01;;;;;;;1.85;1.20;;;;;;;25.26;50.63;93141.63;5014146;28;20037;-85
2021/06/08 09:38:39;;;;;;;2.60;1.63;;;;;;;25.43;51.66;93144.31;5025660;28;20073;-86
2021/06/08 09:41:16;;;;;;;1.88;1.23;;;;;;;25.85;53.76;93130.81;5021263;28;20375;-85
2021/06/08 09:44:05;;;;;;;2.20;1.30;;;;;;;26.49;51.03;93130.53;5011137;28;20141;-84
2021/06/08 09:46:34;;;;;;;1.63;1.13;;;;;;;26.39;46.63;93135.03;5005643;28;20104;-85
2021/06/08 09:49:05;;;;;;;1.77;1.23;;;;;;;26.81;48.20;93134.50;5011299;28;20050;-83
2021/06/08 09:51:50;;;;;;;2.35;1.27;;;;;;;27.01;46.10;93121.75;5011516;28;20045;-85
2021/06/08 09:54:27;;;;;;;2.65;1.50;;;;;;;27.54;48.68;93123.41;5011499;28;20038;-86
2021/06/08 09:57:12;;;;;;;3.63;1.50;;;;;;;27.91;42.25;93109.69;5011376;28;20413;-83
2021/06/08 09:59:43;;;;;;;2.17;1.20;;;;;;;27.74;41.75;93109.50;5011037;28;20141;-84
2021/06/08 10:02:27;;;;;;;2.15;1.27;;;;;;;27.38;45.00;93118.66;5010860;28;20100;-84
2021/06/08 10:05:11;;;;;;;2.00;1.13;;;;;;;27.45;42.83;93107.63;5011327;28;20393;-83
2021/06/08 10:07:37;;;;;;;1.90;1.10;;;;;;;26.27;43.27;93114.59;5010424;28;20046;-83
2021/06/08 10:10:07;;;;;;;2.17;1.42;;;;;;;26.39;43.00;93058.66;5010912;28;20405;-84
2021/06/08 10:12:33;;;;;;;1.60;1.02;;;;;;;27.19;43.90;93105.88;4996659;28;20058;-83
2021/06/08 10:15:08;;;;;;;5.18;1.60;;;;;;;27.77;44.86;93104.66;4989768;28;20043;-83
2021/06/08 10:17:35;;;;;;;3.20;1.35;;;;;;;28.27;44.07;93097.78;4990958;28;20050;-83
2021/06/08 10:22:54;;;;;;;2.20;1.40;;;;;;;28.26;42.21;93097.00;5165418;27;103697;-83
2021/06/08 10:25:20;;;;;;;2.58;1.38;;;;;;;26.50;45.10;93106.53;5148310;27;20043;-82
2021/06/08 10:27:48;;;;;;;2.15;1.50;;;;;;;24.79;47.56;93114.66;5148428;27;20076;-85
2021/06/08 10:30:17;;;;;;;2.47;1.55;;;;;;;24.93;48.12;93116.44;5148380;27;20051;-83
2021/06/08 10:32:43;;;;;;;2.47;1.60;;;;;;;24.72;48.53;93113.53;5147868;27;20068;-84
2021/06/08 10:35:11;;;;;;;3.17;1.85;;;;;;;24.25;49.99;93109.41;5148318;27;20113;-85
2021/06/08 10:37:38;;;;;;;3.47;1.30;;;;;;;23.96;50.48;93103.44;5147703;27;20092;-82
2021/06/08 10:40:07;;;;;;;2.38;1.40;;;;;;;23.61;50.57;93093.41;5148002;27;20047;-83
2021/06/08 10:42:34;;;;;;;3.00;1.35;;;;;;;23.93;51.54;93093.50;5148063;27;20043;-82
2021/06/08 10:45:06;;;;;;;2.65;1.50;;;;;;;23.83;51.38;93097.16;5147960;27;20039;-82
2021/06/08 10:47:40;;;;;;;3.95;2.28;;;;;;;23.73;50.99;93094.72;5147763;27;20035;-82
2021/06/08 10:50:23;;;;;;;3.85;1.90;;;;;;;23.66;51.16;93105.66;5148071;27;20046;-82
2021/06/08 10:52:50;;;;;;;7.72;2.10;;;;;;;23.76;51.33;93073.19;5148029;27;20054;-83
2021/06/08 10:55:25;;;;;;;2.28;1.55;;;;;;;23.44;49.77;93080.13;5147937;27;20046;-83
2021/06/08 10:57:51;;;;;;;4.13;1.40;;;;;;;23.18;51.07;93077.97;5147942;27;20046;-86
2021/06/08 11:00:33;;;;;;;2.45;1.73;;;;;;;23.01;51.24;93068.84;5147937;27;20035;-82
2021/06/08 11:03:01;;;;;;;2.80;1.70;;;;;;;23.68;50.22;93063.38;5135114;27;20330;-83
2021/06/08 11:05:45;;;;;;;2.20;1.40;;;;;;;24.38;48.97;93074.41;5127199;28;20127;-82
2021/06/08 11:08:12;;;;;;;3.30;1.65;;;;;;;24.54;47.26;93069.56;5126951;28;20065;-83
2021/06/08 11:10:56;;;;;;;4.63;1.90;;;;;;;24.40;48.76;93068.88;5126746;28;20043;-83
2021/06/08 11:13:53;;;;;;;1.97;1.13;;;;;;;24.50;48.77;93071.25;5126566;28;20054;-83
2021/06/08 11:16:37;;;;;;;3.13;2.20;;;;;;;24.49;48.13;93067.06;5126927;28;20536;-83
2021/06/08 11:19:04;;;;;;;2.22;1.35;;;;;;;24.66;52.88;93068.22;5126393;28;20126;-83
2021/06/08 11:21:33;;;;;;;5.03;1.92;;;;;;;23.73;57.30;93068.50;5126599;27;20488;-86
2021/06/08 11:23:59;;;;;;;2.65;1.38;;;;;;;23.71;58.29;93068.03;5126492;28;20040;-82
2021/06/08 11:26:50;;;;;;;4.05;1.98;;;;;;;23.42;59.92;93067.31;5125656;28;20044;-83
2021/06/08 11:29:48;;;;;;;3.25;1.80;;;;;;;23.36;59.46;93068.50;5126382;28;20061;-83
2021/06/08 11:32:43;;;;;;;2.13;1.48;;;;;;;23.06;59.83;93074.00;5121339;28;20039;-83
2021/06/08 11:35:11;;;;;;;1.95;1.35;;;;;;;22.29;57.75;93094.41;5100775;28;20445;-86
2021/06/08 11:37:59;;;;;;;2.88;1.90;;;;;;;22.27;59.66;93071.16;5109557;28;20044;-84
2021/06/08 11:41:02;;;;;;;4.57;1.80;;;;;;;22.25;56.69;93051.56;5089329;28;20430;-86